sensor_id;sensor_type;location;lat;lon;timestamp;pressure;altitude;pressure_sealevel;temperature;humidity
24651;BME280;12783;48.824;8.662;2022-07-23T00:01:10;59356.41;;;-144.89;100.00
24651;BME280;12783;48.824;8.662;2022-07-23T00:03:37;59356.41;;;-144.89;100.00
24651;BME280;12783;48.824;8.662;2022-07-23T00:06:05;59356.41;;;-144.89;100.00
24651;BME280;12783;48.824;8.662;2022-07-23T00:08:35;59356.41;;;-144.89;100.00
24651;BME280;12783;48.824;8.662;2022-07-23T00:11:02;59356.41;;;-144.89;100.00
24651;BME280;12783;48.824;8.662;2022-07-23T00:13:29;59356.41;;;-144.89;100.00
24651;BME280;12783;48.824;8.662;2022-07-23T00:15:56;59356.41;;;-144.89;100.00
24651;BME280;12783;48.824;8.662;2022-07-23T00:18:23;59356.41;;;-144.89;100.00
24651;BME280;12783;48.824;8.662;2022-07-23T00:20:50;59356.41;;;-144.89;100.00
24651;BME280;12783;48.824;8.662;2022-07-23T00:23:17;59356.41;;;-144.89;100.00
24651;BME280;12783;48.824;8.662;2022-07-23T00:25:45;59356.41;;;-144.89;100.00
24651;BME280;12783;48.824;8.662;2022-07-23T00:28:12;59356.41;;;-144.89;100.00
24651;BME280;12783;48.824;8.662;2022-07-23T00:30:38;59356.41;;;-144.89;100.00
24651;BME280;12783;48.824;8.662;2022-07-23T00:33:07;59356.41;;;-144.89;100.00
24651;BME280;12783;48.824;8.662;2022-07-23T00:35:38;59356.41;;;-144.89;100.00
24651;BME280;12783;48.824;8.662;2022-07-23T00:38:09;59356.41;;;-144.89;100.00
24651;BME280;12783;48.824;8.662;2022-07-23T00:40:37;59356.41;;;-144.89;100.00
24651;BME280;12783;48.824;8.662;2022-07-23T00:43:05;59356.41;;;-144.89;100.00
24651;BME280;12783;48.824;8.662;2022-07-23T00:45:33;59356.41;;;-144.89;100.00
24651;BME280;12783;48.824;8.662;2022-07-23T00:48:00;59356.41;;;-144.89;100.00
24651;BME280;12783;48.824;8.662;2022-07-23T00:50:27;59356.41;;;-144.89;100.00
24651;BME280;12783;48.824;8.662;2022-07-23T00:52:54;59356.41;;;-144.89;100.00
24651;BME280;12783;48.824;8.662;2022-07-23T00:55:21;59356.41;;;-144.89;100.00
24651;BME280;12783;48.824;8.662;2022-07-23T00:57:50;59356.41;;;-144.89;100.00
24651;BME280;12783;48.824;8.662;2022-07-23T01:00:18;59356.41;;;-144.89;100.00
24651;BME280;12783;48.824;8.662;2022-07-23T01:02:45;59356.41;;;-144.89;100.00
24651;BME280;12783;48.824;8.662;2022-07-23T01:05:15;59356.41;;;-144.89;100.00
24651;BME280;12783;48.824;8.662;2022-07-23T01:07:42;59356.41;;;-144.89;100.00
24651;BME280;12783;48.824;8.662;2022-07-23T01:10:09;59356.41;;;-144.89;100.00
24651;BME280;12783;48.824;8.662;2022-07-23T01:12:56;59356.41;;;-144.89;100.00
24651;BME280;12783;48.824;8.662;2022-07-23T01:15:23;59356.41;;;-144.89;100.00
24651;BME280;12783;48.824;8.662;2022-07-23T01:17:50;59356.41;;;-144.89;100.00
24651;BME280;12783;48.824;8.662;2022-07-23T01:20:18;59356.41;;;-144.89;100.00
24651;BME280;12783;48.824;8.662;2022-07-23T01:22:45;59356.41;;;-144.89;100.00
24651;BME280;12783;48.824;8.662;2022-07-23T01:25:12;59356.41;;;-144.89;100.00
24651;BME280;12783;48.824;8.662;2022-07-23T01:27:39;59356.41;;;-144.89;100.00
24651;BME280;12783;48.824;8.662;2022-07-23T01:30:06;59356.41;;;-144.89;100.00
24651;BME280;12783;48.824;8.662;2022-07-23T01:32:34;59356.41;;;-144.89;100.00
24651;BME280;12783;48.824;8.662;2022-07-23T01:35:00;59356.41;;;-144.89;100.00
24651;BME280;12783;48.824;8.662;2022-07-23T01:37:27;59356.41;;;-144.89;100.00
24651;BME280;12783;48.824;8.662;2022-07-23T01:39:54;59356.41;;;-144.89;100.00
24651;BME280;12783;48.824;8.662;2022-07-23T01:42:21;59356.41;;;-144.89;100.00
24651;BME280;12783;48.824;8.662;2022-07-23T01:44:48;59356.41;;;-144.89;100.00
24651;BME280;12783;48.824;8.662;2022-07-23T01:47:15;59356.41;;;-144.89;100.00
24651;BME280;12783;48.824;8.662;2022-07-23T01:49:42;59356.41;;;-144.89;100.00
24651;BME280;12783;48.824;8.662;2022-07-23T01:52:09;59356.41;;;-144.89;100.00
24651;BME280;12783;48.824;8.662;2022-07-23T01:54:38;59356.41;;;-144.89;100.00
24651;BME280;12783;48.824;8.662;2022-07-23T01:57:07;59356.41;;;-144.89;100.00
24651;BME280;12783;48.824;8.662;2022-07-23T01:59:35;59356.41;;;-144.89;100.00
24651;BME280;12783;48.824;8.662;2022-07-23T02:02:02;59356.41;;;-144.89;100.00
24651;BME280;12783;48.824;8.662;2022-07-23T02:04:30;59356.41;;;-144.89;100.00
24651;BME280;12783;48.824;8.662;2022-07-23T02:06:57;59356.41;;;-144.89;100.00
24651;BME280;12783;48.824;8.662;2022-07-23T02:09:24;59356.41;;;-144.89;100.00
24651;BME280;12783;48.824;8.662;2022-07-23T02:11:51;59356.41;;;-144.89;100.00
24651;BME280;12783;48.824;8.662;2022-07-23T02:14:17;59356.41;;;-144.89;100.00
24651;BME280;12783;48.824;8.662;2022-07-23T02:16:44;59356.41;;;-144.89;100.00
24651;BME280;12783;48.824;8.662;2022-07-23T02:19:11;59356.41;;;-144.89;100.00
24651;BME280;12783;48.824;8.662;2022-07-23T02:21:38;59356.41;;;-144.89;100.00
24651;BME280;12783;48.824;8.662;2022-07-23T02:24:05;59356.41;;;-144.89;100.00
24651;BME280;12783;48.824;8.662;2022-07-23T02:26:32;59356.41;;;-144.89;100.00
24651;BME280;12783;48.824;8.662;2022-07-23T02:29:03;59356.41;;;-144.89;100.00
24651;BME280;12783;48.824;8.662;2022-07-23T02:31:31;59356.41;;;-144.89;100.00
24651;BME280;12783;48.824;8.662;2022-07-23T02:33:58;59356.41;;;-144.89;100.00
24651;BME280;12783;48.824;8.662;2022-07-23T02:36:25;59356.41;;;-144.89;100.00
24651;BME280;12783;48.824;8.662;2022-07-23T02:38:52;59356.41;;;-144.89;100.00
24651;BME280;12783;48.824;8.662;2022-07-23T02:41:19;59356.41;;;-144.89;100.00
24651;BME280;12783;48.824;8.662;2022-07-23T02:43:46;59356.41;;;-144.89;100.00
24651;BME280;12783;48.824;8.662;2022-07-23T02:46:12;59356.41;;;-144.89;100.00
24651;BME280;12783;48.824;8.662;2022-07-23T02:48:39;59356.41;;;-144.89;100.00
24651;BME280;12783;48.824;8.662;2022-07-23T02:51:06;59356.41;;;-144.89;100.00
24651;BME280;12783;48.824;8.662;2022-07-23T02:53:40;59356.41;;;-144.89;100.00
24651;BME280;12783;48.824;8.662;2022-07-23T02:56:07;59356.41;;;-144.89;100.00
24651;BME280;12783;48.824;8.662;2022-07-23T02:58:34;59356.41;;;-144.89;100.00
24651;BME280;12783;48.824;8.662;2022-07-23T03:01:02;59356.41;;;-144.89;100.00
24651;BME280;12783;48.824;8.662;2022-07-23T03:03:29;59356.41;;;-144.89;100.00
24651;BME280;12783;48.824;8.662;2022-07-23T03:05:56;59356.41;;;-144.89;100.00
24651;BME280;12783;48.824;8.662;2022-07-23T03:08:23;59356.41;;;-144.89;100.00
24651;BME280;12783;48.824;8.662;2022-07-23T03:10:50;59356.41;;;-144.89;100.00
24651;BME280;12783;48.824;8.662;2022-07-23T03:13:17;59356.41;;;-144.89;100.00
24651;BME280;12783;48.824;8.662;2022-07-23T03:15:44;59356.41;;;-144.89;100.00
24651;BME280;12783;48.824;8.662;2022-07-23T03:18:11;59356.41;;;-144.89;100.00
24651;BME280;12783;48.824;8.662;2022-07-23T03:20:38;59356.41;;;-144.89;100.00
24651;BME280;12783;48.824;8.662;2022-07-23T03:23:05;59356.41;;;-144.89;100.00
24651;BME280;12783;48.824;8.662;2022-07-23T03:25:32;59356.41;;;-144.89;100.00
24651;BME280;12783;48.824;8.662;2022-07-23T03:27:58;59356.41;;;-144.89;100.00
24651;BME280;12783;48.824;8.662;2022-07-23T03:30:25;59356.41;;;-144.89;100.00
24651;BME280;12783;48.824;8.662;2022-07-23T03:32:52;59356.41;;;-144.89;100.00
24651;BME280;12783;48.824;8.662;2022-07-23T03:35:19;59356.41;;;-144.89;100.00
24651;BME280;12783;48.824;8.662;2022-07-23T03:37:46;59356.41;;;-144.89;100.00
24651;BME280;12783;48.824;8.662;2022-07-23T03:40:13;59356.41;;;-144.89;100.00
24651;BME280;12783;48.824;8.662;2022-07-23T03:42:40;59356.41;;;-144.89;100.00
24651;BME280;12783;48.824;8.662;2022-07-23T03:45:09;59356.41;;;-144.89;100.00
24651;BME280;12783;48.824;8.662;2022-07-23T03:47:36;59356.41;;;-144.89;100.00
24651;BME280;12783;48.824;8.662;2022-07-23T03:50:04;59356.41;;;-144.89;100.00
24651;BME280;12783;48.824;8.662;2022-07-23T03:52:31;59356.41;;;-144.89;100.00
24651;BME280;12783;48.824;8.662;2022-07-23T03:54:57;59356.41;;;-144.89;100.00
24651;BME280;12783;48.824;8.662;2022-07-23T03:57:24;59356.41;;;-144.89;100.00
24651;BME280;12783;48.824;8.662;2022-07-23T03:59:51;59356.41;;;-144.89;100.00
24651;BME280;12783;48.824;8.662;2022-07-23T04:02:18;59356.41;;;-144.89;100.00
24651;BME280;12783;48.824;8.662;2022-07-23T04:04:45;59356.41;;;-144.89;100.00
24651;BME280;12783;48.824;8.662;2022-07-23T04:07:13;59356.41;;;-144.89;100.00
24651;BME280;12783;48.824;8.662;2022-07-23T04:09:40;59356.41;;;-144.89;100.00
24651;BME280;12783;48.824;8.662;2022-07-23T04:12:12;59356.41;;;-144.89;100.00
24651;BME280;12783;48.824;8.662;2022-07-23T04:14:39;59356.41;;;-144.89;100.00
24651;BME280;12783;48.824;8.662;2022-07-23T04:17:06;59356.41;;;-144.89;100.00
24651;BME280;12783;48.824;8.662;2022-07-23T04:19:33;59356.41;;;-144.89;100.00
24651;BME280;12783;48.824;8.662;2022-07-23T04:21:59;59356.41;;;-144.89;100.00
24651;BME280;12783;48.824;8.662;2022-07-23T04:24:26;59356.41;;;-144.89;100.00
24651;BME280;12783;48.824;8.662;2022-07-23T04:26:53;59356.41;;;-144.89;100.00
24651;BME280;12783;48.824;8.662;2022-07-23T04:29:20;59356.41;;;-144.89;100.00
24651;BME280;12783;48.824;8.662;2022-07-23T04:31:47;59356.41;;;-144.89;100.00
24651;BME280;12783;48.824;8.662;2022-07-23T04:34:14;59356.41;;;-144.89;100.00
24651;BME280;12783;48.824;8.662;2022-07-23T04:36:40;59356.41;;;-144.89;100.00
24651;BME280;12783;48.824;8.662;2022-07-23T04:39:07;59356.41;;;-144.89;100.00
24651;BME280;12783;48.824;8.662;2022-07-23T04:41:34;59356.41;;;-144.89;100.00
24651;BME280;12783;48.824;8.662;2022-07-23T04:44:02;59356.41;;;-144.89;100.00
24651;BME280;12783;48.824;8.662;2022-07-23T04:46:29;59356.41;;;-144.89;100.00
24651;BME280;12783;48.824;8.662;2022-07-23T04:48:57;59356.41;;;-144.89;100.00
24651;BME280;12783;48.824;8.662;2022-07-23T04:51:25;59356.41;;;-144.89;100.00
24651;BME280;12783;48.824;8.662;2022-07-23T04:53:52;59356.41;;;-144.89;100.00
24651;BME280;12783;48.824;8.662;2022-07-23T04:56:18;59356.41;;;-144.89;100.00
24651;BME280;12783;48.824;8.662;2022-07-23T04:58:45;59356.41;;;-144.89;100.00
24651;BME280;12783;48.824;8.662;2022-07-23T05:01:12;59356.41;;;-144.89;100.00
24651;BME280;12783;48.824;8.662;2022-07-23T05:03:39;59356.41;;;-144.89;100.00
24651;BME280;12783;48.824;8.662;2022-07-23T05:06:06;59356.41;;;-144.89;100.00
24651;BME280;12783;48.824;8.662;2022-07-23T05:08:33;59356.41;;;-144.89;100.00
24651;BME280;12783;48.824;8.662;2022-07-23T05:11:00;59356.41;;;-144.89;100.00
24651;BME280;12783;48.824;8.662;2022-07-23T05:13:27;59356.41;;;-144.89;100.00
24651;BME280;12783;48.824;8.662;2022-07-23T05:15:54;59356.41;;;-144.89;100.00
24651;BME280;12783;48.824;8.662;2022-07-23T05:18:21;59356.41;;;-144.89;100.00
24651;BME280;12783;48.824;8.662;2022-07-23T05:20:47;59356.41;;;-144.89;100.00
24651;BME280;12783;48.824;8.662;2022-07-23T05:23:14;59356.41;;;-144.89;100.00
24651;BME280;12783;48.824;8.662;2022-07-23T05:25:41;59356.41;;;-144.89;100.00
24651;BME280;12783;48.824;8.662;2022-07-23T05:28:08;59356.41;;;-144.89;100.00
24651;BME280;12783;48.824;8.662;2022-07-23T05:30:35;59356.41;;;-144.89;100.00
24651;BME280;12783;48.824;8.662;2022-07-23T05:33:02;59356.41;;;-144.89;100.00
24651;BME280;12783;48.824;8.662;2022-07-23T05:35:29;59356.41;;;-144.89;100.00
24651;BME280;12783;48.824;8.662;2022-07-23T05:37:56;59356.41;;;-144.89;100.00
24651;BME280;12783;48.824;8.662;2022-07-23T05:40:23;59356.41;;;-144.89;100.00
24651;BME280;12783;48.824;8.662;2022-07-23T05:42:49;59356.41;;;-144.89;100.00
24651;BME280;12783;48.824;8.662;2022-07-23T05:45:16;59356.41;;;-144.89;100.00
24651;BME280;12783;48.824;8.662;2022-07-23T05:47:48;59356.41;;;-144.89;100.00
24651;BME280;12783;48.824;8.662;2022-07-23T05:50:16;59356.41;;;-144.89;100.00
24651;BME280;12783;48.824;8.662;2022-07-23T05:52:43;59356.41;;;-144.89;100.00
24651;BME280;12783;48.824;8.662;2022-07-23T05:55:11;59356.41;;;-144.89;100.00
24651;BME280;12783;48.824;8.662;2022-07-23T05:57:40;59356.41;;;-144.89;100.00
24651;BME280;12783;48.824;8.662;2022-07-23T06:00:09;59356.41;;;-144.89;100.00
24651;BME280;12783;48.824;8.662;2022-07-23T06:02:38;59356.41;;;-144.89;100.00
24651;BME280;12783;48.824;8.662;2022-07-23T06:05:06;59356.41;;;-144.89;100.00
24651;BME280;12783;48.824;8.662;2022-07-23T06:07:35;59356.41;;;-144.89;100.00
24651;BME280;12783;48.824;8.662;2022-07-23T06:10:03;59356.41;;;-144.89;100.00
24651;BME280;12783;48.824;8.662;2022-07-23T06:12:31;59356.41;;;-144.89;100.00
24651;BME280;12783;48.824;8.662;2022-07-23T06:14:58;59356.41;;;-144.89;100.00
24651;BME280;12783;48.824;8.662;2022-07-23T06:17:25;59356.41;;;-144.89;100.00
24651;BME280;12783;48.824;8.662;2022-07-23T06:19:54;59356.41;;;-144.89;100.00
24651;BME280;12783;48.824;8.662;2022-07-23T06:22:22;59356.41;;;-144.89;100.00
24651;BME280;12783;48.824;8.662;2022-07-23T06:24:49;59356.41;;;-144.89;100.00
24651;BME280;12783;48.824;8.662;2022-07-23T06:27:18;59356.41;;;-144.89;100.00
24651;BME280;12783;48.824;8.662;2022-07-23T06:29:52;59356.41;;;-144.89;100.00
24651;BME280;12783;48.824;8.662;2022-07-23T06:32:19;59356.41;;;-144.89;100.00
24651;BME280;12783;48.824;8.662;2022-07-23T06:34:46;59356.41;;;-144.89;100.00
24651;BME280;12783;48.824;8.662;2022-07-23T06:37:14;59356.41;;;-144.89;100.00
24651;BME280;12783;48.824;8.662;2022-07-23T06:39:43;59356.41;;;-144.89;100.00
24651;BME280;12783;48.824;8.662;2022-07-23T06:42:11;59356.41;;;-144.89;100.00
24651;BME280;12783;48.824;8.662;2022-07-23T06:44:38;59356.41;;;-144.89;100.00
24651;BME280;12783;48.824;8.662;2022-07-23T06:47:05;59356.41;;;-144.89;100.00
24651;BME280;12783;48.824;8.662;2022-07-23T06:49:32;59356.41;;;-144.89;100.00
24651;BME280;12783;48.824;8.662;2022-07-23T06:51:59;59356.41;;;-144.89;100.00
24651;BME280;12783;48.824;8.662;2022-07-23T06:54:26;59356.41;;;-144.89;100.00
24651;BME280;12783;48.824;8.662;2022-07-23T06:56:53;59356.41;;;-144.89;100.00
24651;BME280;12783;48.824;8.662;2022-07-23T06:59:19;59356.41;;;-144.89;100.00
24651;BME280;12783;48.824;8.662;2022-07-23T07:01:46;59356.41;;;-144.89;100.00
24651;BME280;12783;48.824;8.662;2022-07-23T07:04:13;59356.41;;;-144.89;100.00
24651;BME280;12783;48.824;8.662;2022-07-23T07:06:40;59356.41;;;-144.89;100.00
24651;BME280;12783;48.824;8.662;2022-07-23T07:09:07;59356.41;;;-144.89;100.00
24651;BME280;12783;48.824;8.662;2022-07-23T07:11:34;59356.41;;;-144.89;100.00
24651;BME280;12783;48.824;8.662;2022-07-23T07:14:01;59356.41;;;-144.89;100.00
24651;BME280;12783;48.824;8.662;2022-07-23T07:16:28;59356.41;;;-144.89;100.00
24651;BME280;12783;48.824;8.662;2022-07-23T07:18:59;59356.41;;;-144.89;100.00
24651;BME280;12783;48.824;8.662;2022-07-23T07:21:26;59356.41;;;-144.89;100.00
24651;BME280;12783;48.824;8.662;2022-07-23T07:23:53;59356.41;;;-144.89;100.00
24651;BME280;12783;48.824;8.662;2022-07-23T07:26:20;59356.41;;;-144.89;100.00
24651;BME280;12783;48.824;8.662;2022-07-23T07:28:47;59356.41;;;-144.89;100.00
24651;BME280;12783;48.824;8.662;2022-07-23T07:31:14;59356.41;;;-144.89;100.00
24651;BME280;12783;48.824;8.662;2022-07-23T07:33:41;59356.41;;;-144.89;100.00
24651;BME280;12783;48.824;8.662;2022-07-23T07:36:08;59356.41;;;-144.89;100.00
24651;BME280;12783;48.824;8.662;2022-07-23T07:38:36;59356.41;;;-144.89;100.00
24651;BME280;12783;48.824;8.662;2022-07-23T07:41:03;59356.41;;;-144.89;100.00
24651;BME280;12783;48.824;8.662;2022-07-23T07:43:30;59356.41;;;-144.89;100.00
24651;BME280;12783;48.824;8.662;2022-07-23T07:45:57;59356.41;;;-144.89;100.00
24651;BME280;12783;48.824;8.662;2022-07-23T07:48:23;59356.41;;;-144.89;100.00
24651;BME280;12783;48.824;8.662;2022-07-23T07:50:51;59356.41;;;-144.89;100.00
24651;BME280;12783;48.824;8.662;2022-07-23T07:53:18;59356.41;;;-144.89;100.00
24651;BME280;12783;48.824;8.662;2022-07-23T07:55:45;59356.41;;;-144.89;100.00
24651;BME280;12783;48.824;8.662;2022-07-23T07:58:32;59356.41;;;-144.89;100.00
24651;BME280;12783;48.824;8.662;2022-07-23T08:00:59;59356.41;;;-144.89;100.00
24651;BME280;12783;48.824;8.662;2022-07-23T08:03:27;59356.41;;;-144.89;100.00
24651;BME280;12783;48.824;8.662;2022-07-23T08:05:54;59356.41;;;-144.89;100.00
24651;BME280;12783;48.824;8.662;2022-07-23T08:08:21;59356.41;;;-144.89;100.00
24651;BME280;12783;48.824;8.662;2022-07-23T08:10:48;59356.41;;;-144.89;100.00
24651;BME280;12783;48.824;8.662;2022-07-23T08:13:16;59356.41;;;-144.89;100.00
24651;BME280;12783;48.824;8.662;2022-07-23T08:15:43;59356.41;;;-144.89;100.00
24651;BME280;12783;48.824;8.662;2022-07-23T08:18:12;59356.41;;;-144.89;100.00
24651;BME280;12783;48.824;8.662;2022-07-23T08:20:39;59356.41;;;-144.89;100.00
24651;BME280;12783;48.824;8.662;2022-07-23T08:23:08;59356.41;;;-144.89;100.00
24651;BME280;12783;48.824;8.662;2022-07-23T08:25:41;59356.41;;;-144.89;100.00
24651;BME280;12783;48.824;8.662;2022-07-23T08:28:11;59356.41;;;-144.89;100.00
24651;BME280;12783;48.824;8.662;2022-07-23T08:30:41;59356.41;;;-144.89;100.00
24651;BME280;12783;48.824;8.662;2022-07-23T08:33:14;59356.41;;;-144.89;100.00
24651;BME280;12783;48.824;8.662;2022-07-23T08:36:01;59356.41;;;-144.89;100.00
24651;BME280;12783;48.824;8.662;2022-07-23T08:38:31;59356.41;;;-144.89;100.00
24651;BME280;12783;48.824;8.662;2022-07-23T08:40:59;59356.41;;;-144.89;100.00
24651;BME280;12783;48.824;8.662;2022-07-23T08:43:32;59356.41;;;-144.89;100.00
24651;BME280;12783;48.824;8.662;2022-07-23T08:46:01;59356.41;;;-144.89;100.00
24651;BME280;12783;48.824;8.662;2022-07-23T08:48:33;59356.41;;;-144.89;100.00
24651;BME280;12783;48.824;8.662;2022-07-23T08:51:03;59356.41;;;-144.89;100.00
24651;BME280;12783;48.824;8.662;2022-07-23T08:53:33;59356.41;;;-144.89;100.00
24651;BME280;12783;48.824;8.662;2022-07-23T08:56:02;59356.41;;;-144.89;100.00
24651;BME280;12783;48.824;8.662;2022-07-23T08:58:30;59356.41;;;-144.89;100.00
24651;BME280;12783;48.824;8.662;2022-07-23T09:00:58;59356.41;;;-144.89;100.00
24651;BME280;12783;48.824;8.662;2022-07-23T09:03:31;59356.41;;;-144.89;100.00
24651;BME280;12783;48.824;8.662;2022-07-23T09:05:59;59356.41;;;-144.89;100.00
24651;BME280;12783;48.824;8.662;2022-07-23T09:11:06;59356.41;;;-144.89;100.00
24651;BME280;12783;48.824;8.662;2022-07-23T09:13:40;59356.41;;;-144.89;100.00
24651;BME280;12783;48.824;8.662;2022-07-23T09:16:24;59356.41;;;-144.89;100.00
24651;BME280;12783;48.824;8.662;2022-07-23T09:18:54;59356.41;;;-144.89;100.00
24651;BME280;12783;48.824;8.662;2022-07-23T09:24:13;59356.41;;;-144.89;100.00
24651;BME280;12783;48.824;8.662;2022-07-23T09:26:44;59356.41;;;-144.89;100.00
24651;BME280;12783;48.824;8.662;2022-07-23T09:29:24;71193.19;;;25.88;100.00
24651;BME280;12783;48.824;8.662;2022-07-23T09:31:54;75742.53;;;26.07;100.00
24651;BME280;12783;48.824;8.662;2022-07-23T09:36:58;85393.53;;;25.26;100.00
24651;BME280;12783;48.824;8.662;2022-07-23T09:39:32;67308.16;;;25.35;100.00
24651;BME280;12783;48.824;8.662;2022-07-23T09:42:17;94506.06;;;25.45;100.00
24651;BME280;12783;48.824;8.662;2022-07-23T09:44:47;86828.47;;;25.53;100.00
24651;BME280;12783;48.824;8.662;2022-07-23T09:47:16;88182.75;;;25.24;100.00
24651;BME280;12783;48.824;8.662;2022-07-23T09:50:09;59356.41;;;-144.89;100.00
24651;BME280;12783;48.824;8.662;2022-07-23T09:52:45;59356.41;;;-144.89;100.00
24651;BME280;12783;48.824;8.662;2022-07-23T09:55:15;59356.41;;;-144.89;100.00
24651;BME280;12783;48.824;8.662;2022-07-23T09:57:44;59356.41;;;-144.89;100.00
24651;BME280;12783;48.824;8.662;2022-07-23T10:00:13;59356.41;;;-144.89;100.00
24651;BME280;12783;48.824;8.662;2022-07-23T10:02:40;59356.41;;;-144.89;100.00
24651;BME280;12783;48.824;8.662;2022-07-23T10:05:07;59356.41;;;-144.89;100.00
24651;BME280;12783;48.824;8.662;2022-07-23T10:07:38;59356.41;;;-144.89;100.00
24651;BME280;12783;48.824;8.662;2022-07-23T10:10:07;59356.41;;;-144.89;100.00
24651;BME280;12783;48.824;8.662;2022-07-23T10:12:35;89638.56;;;25.63;100.00
24651;BME280;12783;48.824;8.662;2022-07-23T10:15:14;83740.94;;;25.91;100.00
24651;BME280;12783;48.824;8.662;2022-07-23T10:17:41;83392.59;;;25.91;100.00
24651;BME280;12783;48.824;8.662;2022-07-23T10:20:08;80237.94;;;25.81;100.00
24651;BME280;12783;48.824;8.662;2022-07-23T10:22:38;78168.31;;;25.97;100.00
24651;BME280;12783;48.824;8.662;2022-07-23T10:25:30;95676.25;;;26.20;100.00
24651;BME280;12783;48.824;8.662;2022-07-23T10:28:32;85108.03;;;25.70;100.00
24651;BME280;12783;48.824;8.662;2022-07-23T10:31:28;74257.34;;;25.35;100.00
24651;BME280;12783;48.824;8.662;2022-07-23T10:34:43;59356.41;;;-144.89;100.00
24651;BME280;12783;48.824;8.662;2022-07-23T10:37:31;59356.41;;;-144.89;100.00
24651;BME280;12783;48.824;8.662;2022-07-23T10:40:20;59356.41;;;-144.89;100.00
24651;BME280;12783;48.824;8.662;2022-07-23T10:42:51;59356.41;;;-144.89;100.00
24651;BME280;12783;48.824;8.662;2022-07-23T10:45:35;59356.41;;;-144.89;100.00
24651;BME280;12783;48.824;8.662;2022-07-23T10:48:22;59356.41;;;-144.89;100.00
24651;BME280;12783;48.824;8.662;2022-07-23T10:51:10;59356.41;;;-144.89;100.00
24651;BME280;12783;48.824;8.662;2022-07-23T10:53:59;59356.41;;;-144.89;100.00
24651;BME280;12783;48.824;8.662;2022-07-23T10:59:22;59356.41;;;-144.89;100.00
24651;BME280;12783;48.824;8.662;2022-07-23T11:01:50;59356.41;;;-144.89;100.00
24651;BME280;12783;48.824;8.662;2022-07-23T11:04:18;59356.41;;;-144.89;100.00
24651;BME280;12783;48.824;8.662;2022-07-23T11:09:28;59356.41;;;-144.89;100.00
24651;BME280;12783;48.824;8.662;2022-07-23T11:15:10;59356.41;;;-144.89;100.00
24651;BME280;12783;48.824;8.662;2022-07-23T11:25:33;51497.50;;;26.67;100.00
24651;BME280;12783;48.824;8.662;2022-07-23T11:28:15;55282.34;;;26.40;100.00
24651;BME280;12783;48.824;8.662;2022-07-23T11:30:46;59356.41;;;-144.89;100.00
24651;BME280;12783;48.824;8.662;2022-07-23T11:35:47;59356.41;;;-144.89;100.00
24651;BME280;12783;48.824;8.662;2022-07-23T11:38:21;59356.41;;;-144.89;100.00
24651;BME280;12783;48.824;8.662;2022-07-23T11:40:54;59356.41;;;-144.89;100.00
24651;BME280;12783;48.824;8.662;2022-07-23T11:43:22;59356.41;;;-144.89;100.00
24651;BME280;12783;48.824;8.662;2022-07-23T11:45:54;59356.41;;;-144.89;100.00
24651;BME280;12783;48.824;8.662;2022-07-23T11:48:26;59356.41;;;-144.89;100.00
24651;BME280;12783;48.824;8.662;2022-07-23T11:50:55;59356.41;;;-144.89;100.00
24651;BME280;12783;48.824;8.662;2022-07-23T11:53:33;59356.41;;;-144.89;100.00
24651;BME280;12783;48.824;8.662;2022-07-23T11:56:06;59356.41;;;-144.89;100.00
24651;BME280;12783;48.824;8.662;2022-07-23T11:58:33;59356.41;;;-144.89;100.00
24651;BME280;12783;48.824;8.662;2022-07-23T12:01:00;59356.41;;;-144.89;100.00
24651;BME280;12783;48.824;8.662;2022-07-23T12:03:27;59356.41;;;-144.89;100.00
24651;BME280;12783;48.824;8.662;2022-07-23T12:05:59;59356.41;;;-144.89;100.00
24651;BME280;12783;48.824;8.662;2022-07-23T12:08:26;59356.41;;;-144.89;100.00
24651;BME280;12783;48.824;8.662;2022-07-23T12:10:53;59356.41;;;-144.89;100.00
24651;BME280;12783;48.824;8.662;2022-07-23T12:13:21;59356.41;;;-144.89;100.00
24651;BME280;12783;48.824;8.662;2022-07-23T12:15:52;59356.41;;;-144.89;100.00
24651;BME280;12783;48.824;8.662;2022-07-23T12:18:23;59356.41;;;-144.89;100.00
24651;BME280;12783;48.824;8.662;2022-07-23T12:20:56;59356.41;;;-144.89;100.00
24651;BME280;12783;48.824;8.662;2022-07-23T12:23:26;59356.41;;;-144.89;100.00
24651;BME280;12783;48.824;8.662;2022-07-23T12:25:54;59356.41;;;-144.89;100.00
24651;BME280;12783;48.824;8.662;2022-07-23T12:28:30;59356.41;;;-144.89;100.00
24651;BME280;12783;48.824;8.662;2022-07-23T12:30:59;59356.41;;;-144.89;100.00
24651;BME280;12783;48.824;8.662;2022-07-23T12:33:35;59356.41;;;-144.89;100.00
24651;BME280;12783;48.824;8.662;2022-07-23T12:36:08;59356.41;;;-144.89;100.00
24651;BME280;12783;48.824;8.662;2022-07-23T12:38:43;59356.41;;;-144.89;100.00
24651;BME280;12783;48.824;8.662;2022-07-23T12:41:10;59356.41;;;-144.89;100.00
24651;BME280;12783;48.824;8.662;2022-07-23T12:43:40;59356.41;;;-144.89;100.00
24651;BME280;12783;48.824;8.662;2022-07-23T12:46:10;59356.41;;;-144.89;100.00
24651;BME280;12783;48.824;8.662;2022-07-23T12:48:52;59356.41;;;-144.89;100.00
24651;BME280;12783;48.824;8.662;2022-07-23T12:51:30;59356.41;;;-144.89;100.00
24651;BME280;12783;48.824;8.662;2022-07-23T12:54:06;59356.41;;;-144.89;100.00
24651;BME280;12783;48.824;8.662;2022-07-23T12:56:39;59356.41;;;-144.89;100.00
24651;BME280;12783;48.824;8.662;2022-07-23T12:59:15;59356.41;;;-144.89;100.00
24651;BME280;12783;48.824;8.662;2022-07-23T13:01:54;59356.41;;;-144.89;100.00
24651;BME280;12783;48.824;8.662;2022-07-23T13:04:25;59356.41;;;-144.89;100.00
24651;BME280;12783;48.824;8.662;2022-07-23T13:06:57;59356.41;;;-144.89;100.00
24651;BME280;12783;48.824;8.662;2022-07-23T13:09:32;59356.41;;;-144.89;100.00